Time;durP1;ratioP1;P1;durP2;ratioP2;P2;SDS_P1;SDS_P2;PMS_P1;PMS_P2;Temp;Humidity;BMP_temperature;BMP_pressure;BME280_temperature;BME280_humidity;BME280_pressure;Samples;Min_cycle;Max_cycle;Signal;HPM_P1;HPM_P2
2022/11/12 00:01:03;;;;;;;11.57;8.10;;;;;;;11.49;59.30;103076.00;5139217;27;20043;-63
2022/11/12 00:03:32;;;;;;;12.57;8.05;;;;;;;11.47;59.54;103077.19;5128931;27;20047;-63
2022/11/12 00:06:00;;;;;;;13.68;7.78;;;;;;;11.46;59.20;103081.72;5140424;28;20303;-63
2022/11/12 00:08:27;;;;;;;14.70;8.52;;;;;;;11.43;59.53;103086.63;5139094;28;20057;-63
2022/11/12 00:10:56;;;;;;;13.38;7.72;;;;;;;11.42;59.35;103077.69;5123100;28;20047;-63
2022/11/12 00:13:23;;;;;;;15.40;8.65;;;;;;;11.43;59.27;103086.63;5141448;28;20050;-63
2022/11/12 00:15:51;;;;;;;13.13;8.27;;;;;;;11.40;59.44;103077.88;5134679;28;20031;-63
2022/11/12 00:18:19;;;;;;;13.18;8.20;;;;;;;11.39;59.57;103081.59;5141294;28;20049;-63
2022/11/12 00:20:48;;;;;;;14.88;8.23;;;;;;;11.38;59.58;103079.06;5137956;28;20044;-63
2022/11/12 00:23:16;;;;;;;14.50;8.63;;;;;;;11.37;59.58;103080.91;5141693;28;20077;-63
2022/11/12 00:25:43;;;;;;;19.73;8.10;;;;;;;11.37;59.39;103077.38;5139509;28;20054;-63
2022/11/12 00:28:11;;;;;;;13.30;7.10;;;;;;;11.36;59.46;103078.38;5142160;28;20057;-63
2022/11/12 00:30:40;;;;;;;15.00;8.88;;;;;;;11.35;59.46;103082.94;5135629;28;20051;-63
2022/11/12 00:33:08;;;;;;;12.75;7.80;;;;;;;11.32;59.49;103083.28;5141918;28;20101;-62
2022/11/12 00:35:36;;;;;;;12.70;8.57;;;;;;;11.30;59.51;103088.00;5138104;28;20138;-63
2022/11/12 00:38:05;;;;;;;13.75;8.43;;;;;;;11.30;59.55;103081.78;5136819;28;20067;-63
2022/11/12 00:40:33;;;;;;;13.05;7.82;;;;;;;11.29;59.46;103080.94;5139626;28;20047;-62
2022/11/12 00:43:01;;;;;;;10.48;7.28;;;;;;;11.28;59.40;103083.78;5133162;28;20058;-63
2022/11/12 00:45:28;;;;;;;12.45;7.80;;;;;;;11.27;59.34;103085.66;5137471;28;20047;-63
2022/11/12 00:47:56;;;;;;;12.10;8.02;;;;;;;11.27;59.41;103087.50;5126058;28;20051;-63
2022/11/12 00:50:24;;;;;;;14.32;8.70;;;;;;;11.26;59.30;103083.97;5141299;28;20050;-63
2022/11/12 00:52:52;;;;;;;11.80;7.93;;;;;;;11.24;59.40;103088.69;5141855;27;20043;-64
2022/11/12 00:55:21;;;;;;;12.77;8.27;;;;;;;11.25;59.13;103084.13;5136643;27;20267;-63
2022/11/12 00:57:49;;;;;;;14.57;8.65;;;;;;;11.23;59.22;103092.38;5145628;27;20135;-63
2022/11/12 01:00:18;;;;;;;14.25;7.95;;;;;;;11.21;59.53;103089.03;5144433;27;20047;-63
2022/11/12 01:02:47;;;;;;;13.10;8.32;;;;;;;11.20;59.32;103081.13;5145760;27;20043;-63
2022/11/12 01:05:19;;;;;;;11.77;7.30;;;;;;;11.20;59.32;103078.44;5142657;27;20043;-63
2022/11/12 01:07:47;;;;;;;11.48;8.02;;;;;;;11.18;59.19;103070.53;5145785;27;20043;-63
2022/11/12 01:10:23;;;;;;;13.98;7.82;;;;;;;11.19;59.15;103074.06;5145403;27;20050;-63
2022/11/12 01:12:51;;;;;;;15.27;7.93;;;;;;;11.13;59.52;103058.59;5142195;27;20043;-63
2022/11/12 01:15:19;;;;;;;11.52;7.63;;;;;;;11.16;59.17;103064.47;5138602;27;20054;-63
2022/11/12 01:17:46;;;;;;;15.05;7.97;;;;;;;11.13;59.07;103055.91;5144719;27;20051;-63
2022/11/12 01:20:14;;;;;;;13.32;7.05;;;;;;;11.06;59.21;103042.28;5141373;27;20047;-63
2022/11/12 01:22:42;;;;;;;14.05;8.13;;;;;;;11.13;58.95;103059.44;5138636;27;20047;-62
2022/11/12 01:25:10;;;;;;;13.38;7.18;;;;;;;11.13;59.10;103055.91;5143621;27;21227;-63
2022/11/12 01:27:39;;;;;;;12.05;7.15;;;;;;;11.12;59.04;103059.59;5134126;27;20046;-62
2022/11/12 01:30:07;;;;;;;12.13;7.45;;;;;;;11.12;59.08;103059.59;5138922;27;20050;-62
2022/11/12 01:32:36;;;;;;;14.32;8.02;;;;;;;11.11;58.98;103053.38;5143880;27;20643;-62
2022/11/12 01:35:05;;;;;;;13.40;7.82;;;;;;;11.07;59.06;103050.19;5144526;27;20058;-63
2022/11/12 01:37:33;;;;;;;13.68;7.32;;;;;;;11.05;58.84;103048.69;5142831;27;20126;-62
2022/11/12 01:40:00;;;;;;;10.85;7.35;;;;;;;11.07;59.01;103052.88;5143045;27;20043;-62
2022/11/12 01:42:31;;;;;;;11.27;6.70;;;;;;;11.06;58.67;103050.38;5144106;27;20047;-63
2022/11/12 01:45:00;;;;;;;13.32;6.95;;;;;;;11.05;58.75;103062.97;5143701;27;20088;-62
2022/11/12 01:47:30;;;;;;;11.98;7.30;;;;;;;11.03;58.98;103059.63;5140889;27;20071;-63
2022/11/12 01:50:05;;;;;;;12.20;7.20;;;;;;;11.02;58.73;103055.25;5144340;27;20138;-62
2022/11/12 01:52:36;;;;;;;10.90;6.82;;;;;;;11.01;58.81;103056.25;5152832;27;20049;-63
2022/11/12 01:55:09;;;;;;;11.02;7.45;;;;;;;10.99;59.17;103060.13;5139187;27;20039;-62
2022/11/12 01:57:41;;;;;;;9.65;6.18;;;;;;;10.97;58.93;103054.91;5143701;27;20078;-61
2022/11/12 02:00:13;;;;;;;12.38;7.07;;;;;;;10.96;58.93;103055.94;5143420;27;20054;-62
2022/11/12 02:02:45;;;;;;;11.07;6.97;;;;;;;10.96;58.88;103058.63;5139690;27;20043;-63
2022/11/12 02:05:14;;;;;;;9.68;6.78;;;;;;;10.94;58.79;103057.94;5143397;27;20043;-64
2022/11/12 02:07:45;;;;;;;11.13;6.55;;;;;;;10.94;58.80;103051.72;5143470;27;20049;-63
2022/11/12 02:10:14;;;;;;;11.57;6.25;;;;;;;10.93;58.86;103050.88;5133602;27;20055;-63
2022/11/12 02:15:29;;;;;;;13.77;6.50;;;;;;;10.92;58.73;103057.28;5142500;27;20051;-63
2022/11/12 02:17:57;;;;;;;11.35;6.90;;;;;;;10.90;58.88;103059.31;5137836;27;20044;-63
2022/11/12 02:20:25;;;;;;;17.67;6.00;;;;;;;10.89;59.05;103052.25;5141800;27;20052;-63
2022/11/12 02:22:54;;;;;;;9.65;6.10;;;;;;;10.89;58.82;103051.41;5143060;27;20061;-63
2022/11/12 02:25:24;;;;;;;13.00;6.28;;;;;;;10.87;58.70;103054.25;5140012;27;20060;-63
2022/11/12 02:27:54;;;;;;;11.55;6.88;;;;;;;10.86;58.79;103055.28;5135720;27;20717;-63
2022/11/12 02:30:32;;;;;;;9.27;6.15;;;;;;;10.84;58.86;103054.59;5141792;27;20047;-63
2022/11/12 02:33:00;;;;;;;9.82;6.15;;;;;;;10.82;58.69;103056.63;5140165;27;20051;-63
2022/11/12 02:35:28;;;;;;;13.88;6.60;;;;;;;10.83;58.62;103058.28;5141046;27;20066;-63
2022/11/12 02:37:57;;;;;;;13.43;6.60;;;;;;;10.82;58.55;103058.47;5148978;27;20054;-63
2022/11/12 02:40:25;;;;;;;13.32;6.53;;;;;;;10.81;58.54;103054.09;5128936;27;20054;-63
2022/11/12 02:42:53;;;;;;;8.80;5.97;;;;;;;10.79;58.56;103051.56;5144069;27;20043;-63
2022/11/12 02:45:21;;;;;;;9.10;5.97;;;;;;;10.67;58.68;103029.56;5132796;27;20056;-63
2022/11/12 02:47:48;;;;;;;10.00;5.85;;;;;;;10.76;58.52;103043.84;5134489;27;20043;-63
2022/11/12 02:50:17;;;;;;;10.73;6.13;;;;;;;10.73;58.61;103036.97;5139063;27;20065;-63
2022/11/12 02:52:44;;;;;;;11.57;5.88;;;;;;;10.74;58.54;103035.09;5133725;27;20043;-62
2022/11/12 02:55:13;;;;;;;8.77;5.68;;;;;;;10.75;58.46;103028.72;5141627;27;20055;-63
2022/11/12 02:57:41;;;;;;;10.35;6.47;;;;;;;10.73;58.63;103028.03;5141254;27;20042;-63
2022/11/12 03:00:11;;;;;;;13.88;6.65;;;;;;;10.73;58.59;103038.81;5135326;27;20054;-63
2022/11/12 03:02:41;;;;;;;8.73;5.43;;;;;;;10.72;58.64;103037.97;5143122;27;20046;-63
2022/11/12 03:05:09;;;;;;;11.40;6.03;;;;;;;10.69;58.77;103032.09;5130165;27;20059;-63
2022/11/12 03:07:37;;;;;;;9.27;6.00;;;;;;;10.72;58.61;103029.06;5142050;27;20050;-62
2022/11/12 03:10:06;;;;;;;10.45;6.00;;;;;;;10.73;58.72;103034.25;5137174;27;20061;-63
2022/11/12 03:12:35;;;;;;;8.68;5.47;;;;;;;10.70;58.75;103033.75;5141724;27;20047;-62
2022/11/12 03:15:03;;;;;;;9.60;5.47;;;;;;;10.70;58.62;103031.06;5138794;27;20054;-64
2022/11/12 03:17:31;;;;;;;8.40;5.80;;;;;;;10.70;58.79;103034.59;5140629;27;20035;-62
2022/11/12 03:19:59;;;;;;;9.60;5.93;;;;;;;10.70;58.85;103044.53;5141541;27;20047;-62
2022/11/12 03:22:26;;;;;;;9.48;4.97;;;;;;;10.69;58.83;103038.31;5139539;27;20055;-62
2022/11/12 03:24:54;;;;;;;10.13;6.38;;;;;;;10.69;58.91;103040.16;5141238;27;20055;-63
2022/11/12 03:27:22;;;;;;;9.75;5.68;;;;;;;10.68;58.93;103041.16;5140210;27;20046;-63
2022/11/12 03:29:51;;;;;;;10.25;5.28;;;;;;;10.67;58.91;103043.00;5139577;27;20039;-63
2022/11/12 03:32:18;;;;;;;11.65;5.50;;;;;;;10.66;59.02;103053.94;5141495;27;20488;-63
2022/11/12 03:34:46;;;;;;;10.57;4.95;;;;;;;10.65;58.96;103054.94;5140533;27;20455;-63
2022/11/12 03:37:18;;;;;;;7.95;5.38;;;;;;;10.66;59.07;103062.84;5136691;27;20035;-63
2022/11/12 03:39:46;;;;;;;11.98;6.07;;;;;;;10.65;58.84;103055.78;5141873;27;20054;-63
2022/11/12 03:42:13;;;;;;;11.30;5.20;;;;;;;10.64;58.97;103056.78;5130755;27;20051;-63
2022/11/12 03:44:41;;;;;;;12.30;6.32;;;;;;;10.61;59.24;103053.59;5133070;27;20039;-63
2022/11/12 03:47:10;;;;;;;6.93;4.85;;;;;;;10.58;59.38;103054.78;5140888;27;20054;-63
2022/11/12 03:49:38;;;;;;;9.98;5.10;;;;;;;10.59;59.42;103058.31;5140234;27;20046;-63
2022/11/12 03:52:05;;;;;;;7.72;5.03;;;;;;;10.58;59.34;103053.94;5138486;27;20115;-63
2022/11/12 03:54:33;;;;;;;9.13;5.20;;;;;;;10.57;59.23;103053.09;5139248;27;20131;-63
2022/11/12 03:57:01;;;;;;;12.90;5.07;;;;;;;10.56;59.37;103048.72;5139108;27;20047;-63
2022/11/12 03:59:28;;;;;;;7.72;5.15;;;;;;;10.55;59.18;103048.91;5140522;27;20043;-63
2022/11/12 04:01:56;;;;;;;10.82;5.65;;;;;;;10.55;59.18;103048.91;5140183;27;20051;-62
2022/11/12 04:08:34;;;;;;;8.85;4.85;;;;;;;10.54;59.15;103044.53;5134308;27;20039;-63
2022/11/12 04:09:59;;;;;;;7.53;5.10;;;;;;;10.52;59.23;103038.47;5137499;28;20196;-63
2022/11/12 04:15:11;;;;;;;9.30;5.57;;;;;;;10.51;59.01;103031.41;5137789;28;20039;-62
2022/11/12 04:23:11;;;;;;;9.30;5.68;;;;;;;10.48;59.08;103019.16;5150734;27;20043;-63
2022/11/12 04:28:24;;;;;;;10.70;5.57;;;;;;;10.47;58.81;103025.53;5136845;27;20050;-63
2022/11/12 04:30:52;;;;;;;9.02;5.15;;;;;;;10.46;59.22;103026.53;5144112;27;20043;-63
2022/11/12 04:33:19;;;;;;;7.47;4.80;;;;;;;10.44;58.89;103020.50;5144033;27;20043;-63
2022/11/12 04:35:48;;;;;;;9.45;5.88;;;;;;;10.43;59.10;103018.81;5143598;27;20134;-62
2022/11/12 04:38:16;;;;;;;8.07;5.10;;;;;;;10.43;59.26;103016.13;5145527;27;20039;-63
2022/11/12 04:46:15;;;;;;;8.27;5.47;;;;;;;10.40;59.16;103017.28;5143672;27;20051;-63
2022/11/12 04:48:42;;;;;;;8.60;4.95;;;;;;;10.39;58.72;103018.34;5145565;27;20039;-63
2022/11/12 04:53:53;;;;;;;11.55;6.47;;;;;;;10.38;58.47;103013.13;5142188;27;20063;-63
2022/11/12 04:56:21;;;;;;;10.45;5.22;;;;;;;10.37;58.76;103006.91;5138996;27;20047;-63
2022/11/12 04:58:49;;;;;;;7.35;5.30;;;;;;;10.35;58.79;103011.63;5145406;27;20040;-62
2022/11/12 05:01:16;;;;;;;7.45;5.13;;;;;;;10.36;58.71;103013.28;5135117;27;20047;-63
2022/11/12 05:03:44;;;;;;;8.98;4.80;;;;;;;10.36;58.82;103017.84;5144129;27;20047;-63
2022/11/12 05:08:55;;;;;;;8.20;5.15;;;;;;;10.35;58.88;103016.16;5134488;27;20058;-63
2022/11/12 05:11:23;;;;;;;7.75;5.22;;;;;;;10.33;58.59;103005.56;5144362;27;20051;-63
2022/11/12 05:13:50;;;;;;;7.40;4.90;;;;;;;10.31;58.88;103009.44;5143394;27;20054;-63
2022/11/12 05:16:18;;;;;;;10.15;5.00;;;;;;;10.30;58.60;103002.38;5141714;27;20054;-63
2022/11/12 05:18:46;;;;;;;8.80;5.45;;;;;;;10.20;58.71;102974.81;5141256;27;20043;-63
2022/11/12 05:24:03;;;;;;;9.02;5.20;;;;;;;10.28;58.90;102993.63;5144128;27;21573;-63
2022/11/12 05:26:31;;;;;;;8.82;4.90;;;;;;;10.28;58.60;102991.78;5144908;27;20051;-63
2022/11/12 05:28:59;;;;;;;7.10;4.82;;;;;;;10.25;58.74;102977.84;5139191;27;20040;-63
2022/11/12 05:31:31;;;;;;;8.32;5.35;;;;;;;10.24;58.59;102995.81;5137112;27;20119;-62
2022/11/12 05:33:59;;;;;;;10.07;4.93;;;;;;;10.24;58.72;103001.19;5144931;27;20054;-62
2022/11/12 05:36:28;;;;;;;9.02;5.57;;;;;;;10.21;58.29;102998.00;5140043;27;20536;-62
2022/11/12 05:38:56;;;;;;;9.57;5.63;;;;;;;10.20;58.77;102990.94;5143464;27;20170;-62
2022/11/12 05:41:24;;;;;;;8.50;5.05;;;;;;;10.18;58.85;102992.94;5137135;27;20332;-63
2022/11/12 05:43:51;;;;;;;9.18;5.45;;;;;;;10.19;58.54;102999.97;5144376;27;20070;-63
2022/11/12 05:46:19;;;;;;;11.15;5.25;;;;;;;10.19;58.63;102991.91;5132651;27;20039;-62
2022/11/12 05:48:47;;;;;;;9.50;5.78;;;;;;;10.11;58.34;102992.75;5142035;27;20031;-62
2022/11/12 05:51:15;;;;;;;7.70;4.40;;;;;;;10.16;58.45;102994.94;5143754;27;20169;-63
2022/11/12 05:53:44;;;;;;;8.95;4.88;;;;;;;10.16;58.59;102987.72;5135979;27;20243;-62
2022/11/12 05:56:12;;;;;;;10.75;4.88;;;;;;;10.16;58.49;102990.41;5141177;27;20055;-62
2022/11/12 05:58:39;;;;;;;10.40;5.45;;;;;;;10.09;58.41;102984.84;5142447;27;20039;-62
2022/11/12 06:01:07;;;;;;;8.82;5.03;;;;;;;10.12;58.45;102983.69;5133140;27;20043;-62
2022/11/12 06:03:35;;;;;;;8.25;4.93;;;;;;;10.10;58.58;102991.06;4782821;27;10000448;-63
2022/11/12 06:06:02;;;;;;;8.68;5.20;;;;;;;10.09;58.25;102984.84;5133633;27;20120;-63
2022/11/12 06:08:30;;;;;;;8.48;5.30;;;;;;;10.09;58.22;102984.03;5139188;27;20049;-62
2022/11/12 06:10:59;;;;;;;9.68;5.35;;;;;;;10.09;58.54;102984.84;5139943;27;20055;-63
2022/11/12 06:13:27;;;;;;;10.77;5.75;;;;;;;10.06;58.60;102987.03;5136577;27;20053;-63
2022/11/12 06:15:55;;;;;;;10.65;5.40;;;;;;;10.04;58.44;102984.50;5135430;27;20318;-63
2022/11/12 06:18:24;;;;;;;7.90;4.50;;;;;;;10.07;57.97;102992.25;5136664;27;20044;-63
2022/11/12 06:23:38;;;;;;;11.57;5.72;;;;;;;10.05;58.55;102993.41;5138678;27;20107;-63
2022/11/12 06:26:07;;;;;;;17.30;5.65;;;;;;;10.02;58.49;102994.59;5139617;27;20043;-62
2022/11/12 06:28:35;;;;;;;10.32;5.22;;;;;;;10.03;58.40;103000.81;5140377;27;20068;-62
2022/11/12 06:31:03;;;;;;;9.25;5.00;;;;;;;10.03;58.27;103004.31;5119086;28;20066;-62
2022/11/12 06:33:31;;;;;;;7.90;4.40;;;;;;;10.01;58.23;103008.19;5135378;27;20047;-62
2022/11/12 06:36:01;;;;;;;9.20;4.97;;;;;;;10.00;58.54;103006.50;5128108;27;20067;-62
2022/11/12 06:38:30;;;;;;;8.18;5.03;;;;;;;10.00;58.49;103003.81;5124675;27;20142;-62
2022/11/12 06:40:57;;;;;;;9.80;5.57;;;;;;;9.98;57.95;103003.13;5137550;27;20059;-62
2022/11/12 06:43:29;;;;;;;7.50;5.45;;;;;;;9.99;58.03;102999.44;5133012;27;20047;-62
2022/11/12 06:45:59;;;;;;;6.80;4.32;;;;;;;9.98;58.51;103005.81;5124539;27;20050;-63
2022/11/12 06:48:28;;;;;;;7.47;5.13;;;;;;;9.98;58.47;103003.13;5134073;27;20354;-61
2022/11/12 06:50:56;;;;;;;8.23;4.95;;;;;;;9.99;58.42;103008.34;5136711;27;20055;-60
2022/11/12 06:53:25;;;;;;;9.43;4.95;;;;;;;9.96;58.08;103008.69;5139934;27;20047;-60
2022/11/12 06:55:52;;;;;;;7.03;4.50;;;;;;;9.94;58.15;103008.00;5137080;27;20114;-61
2022/11/12 06:58:20;;;;;;;8.00;5.10;;;;;;;9.95;58.22;103006.16;5140254;27;20535;-61
2022/11/12 07:00:49;;;;;;;9.63;5.55;;;;;;;9.93;58.23;103019.75;5137543;27;20051;-61
2022/11/12 07:03:17;;;;;;;11.23;5.75;;;;;;;9.94;58.06;103012.53;5138948;27;20064;-60
2022/11/12 07:05:44;;;;;;;9.27;5.07;;;;;;;9.91;58.64;103010.19;5135674;27;20058;-61
2022/11/12 07:08:12;;;;;;;11.90;5.20;;;;;;;9.91;58.44;103010.19;5140198;27;20320;-61
2022/11/12 07:10:40;;;;;;;8.65;5.63;;;;;;;9.90;58.40;103011.19;5139199;27;20043;-59
2022/11/12 07:13:07;;;;;;;9.50;5.30;;;;;;;9.89;57.95;103012.19;5135994;27;20058;-59
2022/11/12 07:15:35;;;;;;;8.82;5.47;;;;;;;9.85;58.14;103000.09;5127231;27;20065;-60
2022/11/12 07:18:04;;;;;;;11.38;5.30;;;;;;;9.88;58.47;103008.66;5125942;27;20066;-59
2022/11/12 07:20:32;;;;;;;7.22;4.38;;;;;;;9.89;58.55;103012.19;5136220;27;20462;-59
2022/11/12 07:23:00;;;;;;;8.68;5.10;;;;;;;9.87;58.52;103011.50;5139194;27;20047;-60
2022/11/12 07:25:28;;;;;;;8.60;5.82;;;;;;;9.85;58.12;103011.69;5130009;27;20471;-60
2022/11/12 07:27:55;;;;;;;9.20;5.30;;;;;;;9.86;58.53;103015.19;5139436;27;20055;-59
2022/11/12 07:30:23;;;;;;;10.70;5.85;;;;;;;9.83;58.42;103010.16;5136807;27;20093;-59
2022/11/12 07:32:51;;;;;;;7.97;4.97;;;;;;;9.83;58.32;103019.06;5131470;27;20055;-59
2022/11/12 07:35:20;;;;;;;8.00;5.07;;;;;;;9.82;58.46;103022.75;5122150;28;20058;-60
2022/11/12 07:37:47;;;;;;;8.30;5.43;;;;;;;9.83;58.77;103023.59;5139490;27;20054;-59
2022/11/12 07:40:15;;;;;;;10.30;4.88;;;;;;;9.81;58.68;103029.13;5141172;27;20228;-60
2022/11/12 07:42:43;;;;;;;7.57;5.07;;;;;;;9.81;58.22;103025.59;5140890;27;20066;-58
2022/11/12 07:45:11;;;;;;;8.75;5.68;;;;;;;9.79;58.58;103031.97;5141957;27;20054;-61
2022/11/12 07:47:38;;;;;;;9.18;5.50;;;;;;;9.79;58.54;103029.28;5135209;27;20040;-60
2022/11/12 07:50:07;;;;;;;9.05;5.00;;;;;;;9.82;58.64;103035.34;5139507;27;20043;-61
2022/11/12 07:52:36;;;;;;;10.73;5.47;;;;;;;9.88;58.65;103032.00;5140547;27;20043;-61
2022/11/12 07:55:05;;;;;;;9.52;4.68;;;;;;;10.01;58.15;103033.19;5142298;27;20130;-59
2022/11/12 07:57:33;;;;;;;8.48;4.72;;;;;;;10.12;58.12;103029.34;5136906;27;20054;-60
2022/11/12 08:00:01;;;;;;;9.02;5.40;;;;;;;10.21;57.77;103027.56;5123110;27;20049;-60
2022/11/12 08:02:29;;;;;;;7.45;5.32;;;;;;;10.34;57.20;103030.59;5120779;28;20558;-60
2022/11/12 08:04:57;;;;;;;9.98;5.15;;;;;;;10.46;57.20;103042.66;5121997;28;20040;-59
2022/11/12 08:07:24;;;;;;;10.55;5.03;;;;;;;10.57;56.73;103038.81;5129195;27;20073;-60
2022/11/12 08:09:54;;;;;;;11.75;4.43;;;;;;;10.72;56.44;103045.19;5136401;28;20040;-59
2022/11/12 08:12:21;;;;;;;10.60;4.95;;;;;;;10.89;55.81;103035.25;5136925;28;20096;-59
2022/11/12 08:14:49;;;;;;;12.57;5.63;;;;;;;11.03;55.76;103035.41;5129793;27;20070;-63
2022/11/12 08:17:17;;;;;;;11.85;5.57;;;;;;;10.85;56.30;103036.59;5134250;28;20107;-58
2022/11/12 08:19:45;;;;;;;11.80;5.85;;;;;;;10.64;57.07;103043.34;5139424;28;20070;-63
2022/11/12 08:22:12;;;;;;;9.35;5.70;;;;;;;10.57;57.34;103038.81;5136153;28;20047;-61
2022/11/12 08:24:40;;;;;;;9.73;6.30;;;;;;;10.49;57.54;103045.03;5133657;28;20048;-61
2022/11/12 08:27:09;;;;;;;11.65;5.70;;;;;;;10.42;57.75;103052.06;5128493;28;20054;-61
2022/11/12 08:29:37;;;;;;;9.27;5.03;;;;;;;10.36;58.14;103050.94;5140639;27;20035;-61
2022/11/12 08:32:05;;;;;;;13.02;5.72;;;;;;;10.28;58.66;103058.97;5139759;28;20049;-61
2022/11/12 08:34:34;;;;;;;13.85;5.78;;;;;;;10.25;58.67;103048.56;5128120;28;20075;-62
2022/11/12 08:37:02;;;;;;;8.50;5.65;;;;;;;10.22;58.87;103050.75;5133790;28;20047;-61
2022/11/12 08:39:30;;;;;;;8.90;5.25;;;;;;;10.20;58.82;103050.06;5144121;28;20130;-61
2022/11/12 08:41:57;;;;;;;10.93;5.30;;;;;;;10.16;58.72;103052.22;4785928;27;10000038;-61
2022/11/12 08:44:27;;;;;;;9.48;5.88;;;;;;;10.13;59.03;103059.75;5127782;28;20058;-61
2022/11/12 08:46:54;;;;;;;16.13;6.05;;;;;;;10.10;58.95;103067.13;5128317;28;20051;-61
2022/11/12 08:49:22;;;;;;;10.27;5.85;;;;;;;10.09;59.03;103068.16;5136570;28;20058;-61
2022/11/12 08:51:50;;;;;;;8.57;5.70;;;;;;;10.09;59.07;103067.31;5119450;28;20062;-61
2022/11/12 08:54:18;;;;;;;9.30;5.10;;;;;;;10.04;59.65;103051.69;5138849;28;20043;-61
2022/11/12 08:56:45;;;;;;;11.18;4.78;;;;;;;10.04;59.57;103061.59;5138998;28;20231;-61
2022/11/12 08:59:13;;;;;;;17.45;5.00;;;;;;;10.02;59.90;103059.06;5126197;28;20056;-61
2022/11/12 09:01:42;;;;;;;7.47;5.07;;;;;;;10.00;59.48;103053.00;5124767;28;20069;-61
2022/11/12 09:04:10;;;;;;;9.23;5.50;;;;;;;9.93;59.72;103046.63;5137480;28;20065;-61
2022/11/12 09:06:38;;;;;;;9.05;5.38;;;;;;;9.98;60.07;103055.03;5131584;28;20048;-60
2022/11/12 09:09:06;;;;;;;10.48;5.43;;;;;;;9.97;60.26;103058.72;5118504;28;20051;-61
2022/11/12 09:11:33;;;;;;;6.82;4.47;;;;;;;9.98;60.28;103060.38;5125448;28;20054;-60
2022/11/12 09:14:01;;;;;;;8.55;5.10;;;;;;;9.98;60.03;103056.88;5128543;27;20055;-60
2022/11/12 09:16:29;;;;;;;8.40;4.88;;;;;;;9.96;60.37;103054.34;5123424;28;20047;-60
2022/11/12 09:18:58;;;;;;;10.00;5.18;;;;;;;9.95;60.85;103051.81;5132981;27;20058;-62
2022/11/12 09:21:26;;;;;;;7.18;4.50;;;;;;;9.97;59.97;103050.66;5124805;27;20043;-62
2022/11/12 09:23:54;;;;;;;9.88;4.85;;;;;;;9.99;60.45;103058.53;5141220;27;20061;-62
2022/11/12 09:26:22;;;;;;;9.13;5.18;;;;;;;10.00;60.35;103057.53;5139298;27;20119;-62
2022/11/12 09:28:51;;;;;;;10.15;5.30;;;;;;;9.98;60.32;103052.34;5135316;27;20051;-62
2022/11/12 09:31:18;;;;;;;14.45;4.90;;;;;;;10.00;60.61;103052.16;5139381;27;20042;-63
2022/11/12 09:33:46;;;;;;;10.05;4.55;;;;;;;9.98;61.05;103049.66;5138812;27;20047;-62
2022/11/12 09:36:16;;;;;;;7.38;5.07;;;;;;;10.00;60.83;103050.31;5126981;27;20048;-62
2022/11/12 09:38:44;;;;;;;8.43;4.80;;;;;;;10.02;60.94;103055.53;5123424;27;20607;-63
2022/11/12 09:41:20;;;;;;;11.10;4.95;;;;;;;10.02;61.24;103042.94;5131893;27;20051;-62
2022/11/12 09:43:51;;;;;;;8.25;4.63;;;;;;;10.04;61.07;103053.53;5140687;27;20043;-62
2022/11/12 09:46:28;;;;;;;8.68;5.20;;;;;;;10.05;62.37;103057.88;5137601;27;20053;-63
2022/11/12 09:49:02;;;;;;;8.85;4.95;;;;;;;10.06;61.76;103054.19;5134349;27;20054;-62
2022/11/12 09:51:34;;;;;;;10.27;4.80;;;;;;;10.09;61.45;103052.03;5138384;27;20047;-64
2022/11/12 09:54:04;;;;;;;6.60;4.15;;;;;;;10.10;61.38;103048.34;5139187;27;20062;-63
2022/11/12 09:56:32;;;;;;;9.27;4.38;;;;;;;10.13;61.89;103052.53;5138149;27;20047;-65
2022/11/12 09:59:00;;;;;;;9.00;3.92;;;;;;;10.10;61.44;103050.19;5144187;27;20047;-65
2022/11/12 10:01:42;;;;;;;7.28;4.60;;;;;;;10.11;61.50;103046.50;5142824;27;20403;-66
2022/11/12 10:04:36;;;;;;;8.35;4.65;;;;;;;10.11;62.31;103047.31;5134378;27;20066;-63
2022/11/12 10:07:12;;;;;;;9.77;4.10;;;;;;;10.14;62.06;103054.22;5141085;27;20055;-65
2022/11/12 10:09:51;;;;;;;10.18;5.18;;;;;;;10.16;62.20;103043.31;5143446;27;20039;-62
2022/11/12 10:12:32;;;;;;;13.32;5.00;;;;;;;10.19;61.98;103042.97;5141791;27;20035;-64
2022/11/12 10:18:08;;;;;;;8.43;3.90;;;;;;;10.24;62.36;103038.81;5149697;27;20164;-63
2022/11/12 10:20:41;;;;;;;14.07;4.85;;;;;;;10.25;61.93;103036.97;5139442;27;20058;-63
2022/11/12 10:23:18;;;;;;;8.90;4.75;;;;;;;10.28;61.95;103037.47;5143923;27;20063;-65
2022/11/12 10:25:48;;;;;;;10.48;4.20;;;;;;;10.28;62.53;103042.00;5143343;27;20043;-63
2022/11/12 10:28:26;;;;;;;5.57;3.58;;;;;;;10.30;62.50;103042.69;5130674;27;20084;-66
2022/11/12 10:31:01;;;;;;;8.27;3.95;;;;;;;10.32;62.53;103043.38;5138117;27;20096;-65
2022/11/12 10:33:31;;;;;;;7.20;4.25;;;;;;;10.34;62.67;103044.03;5133960;27;20047;-64
2022/11/12 10:36:15;;;;;;;11.13;4.32;;;;;;;10.36;62.36;103047.41;5134958;27;20393;-64
2022/11/12 10:38:47;;;;;;;6.07;3.60;;;;;;;10.33;62.67;103032.44;5143778;27;20047;-63
2022/11/12 10:41:22;;;;;;;8.45;4.10;;;;;;;10.36;62.78;103034.81;5133951;27;20047;-63
2022/11/12 10:43:58;;;;;;;6.18;4.15;;;;;;;10.39;62.70;103034.47;5140986;27;20044;-63
2022/11/12 10:46:28;;;;;;;5.72;3.28;;;;;;;10.41;62.93;103032.41;5141448;27;20077;-64
2022/11/12 10:48:59;;;;;;;6.63;3.58;;;;;;;10.44;62.83;103028.56;5141256;27;20126;-63
2022/11/12 10:51:31;;;;;;;9.23;4.25;;;;;;;10.45;62.87;103030.22;5142338;27;20046;-64
2022/11/12 10:54:28;;;;;;;10.25;4.18;;;;;;;10.48;63.04;103027.22;5132824;27;20047;-64
2022/11/12 10:56:56;;;;;;;6.10;3.78;;;;;;;10.51;62.91;103024.19;5123463;28;20624;-64
2022/11/12 10:59:24;;;;;;;12.70;4.43;;;;;;;10.52;63.09;103014.28;5135095;27;20053;-64
2022/11/12 11:01:57;;;;;;;7.38;4.07;;;;;;;10.56;63.19;103007.56;5143278;27;20060;-63
2022/11/12 11:04:29;;;;;;;5.80;3.40;;;;;;;10.59;63.04;103007.22;4783825;27;9999982;-64
2022/11/12 11:07:00;;;;;;;5.72;3.95;;;;;;;10.63;62.81;103005.88;5132547;27;20047;-65
2022/11/12 11:09:30;;;;;;;6.80;3.92;;;;;;;10.66;63.20;103003.69;5139068;27;20054;-63
2022/11/12 11:11:58;;;;;;;9.00;3.40;;;;;;;10.70;63.21;103004.19;5139565;27;20065;-64
2022/11/12 11:14:32;;;;;;;8.10;3.75;;;;;;;10.75;63.07;103009.88;5138081;27;20067;-63
2022/11/12 11:17:03;;;;;;;6.15;3.60;;;;;;;10.80;63.04;103012.06;5137404;27;20047;-66
2022/11/12 11:19:37;;;;;;;7.13;3.83;;;;;;;10.84;63.14;103008.03;5139890;27;20110;-64
2022/11/12 11:22:38;;;;;;;6.85;3.60;;;;;;;10.88;63.11;103004.00;5121987;27;20051;-65
2022/11/12 11:25:20;;;;;;;6.85;3.75;;;;;;;10.92;63.25;103000.78;5125338;27;20054;-65
2022/11/12 11:28:01;;;;;;;7.63;3.30;;;;;;;10.96;63.23;103003.97;5123190;28;20048;-64
2022/11/12 11:30:29;;;;;;;6.80;3.70;;;;;;;10.99;63.16;102995.56;5132755;27;20051;-65
2022/11/12 11:33:21;;;;;;;7.78;3.53;;;;;;;11.02;63.28;102998.75;5123365;27;20050;-64
2022/11/12 11:36:02;;;;;;;8.40;3.58;;;;;;;11.05;63.32;103000.25;5130327;27;20039;-64
2022/11/12 11:38:40;;;;;;;7.85;3.67;;;;;;;11.06;63.29;102993.84;5143282;27;20062;-64
2022/11/12 11:41:29;;;;;;;6.40;3.65;;;;;;;11.09;63.45;102997.03;5141094;27;20047;-64
2022/11/12 11:44:08;;;;;;;7.47;3.90;;;;;;;11.13;63.38;102985.94;5122939;28;20055;-64
2022/11/12 11:46:51;;;;;;;6.40;3.30;;;;;;;11.16;63.43;102982.91;5123719;27;20512;-64
2022/11/12 11:49:35;;;;;;;8.82;4.40;;;;;;;11.18;63.42;102978.19;5122702;28;20051;-65
2022/11/12 11:52:14;;;;;;;7.43;3.60;;;;;;;11.22;63.49;102972.28;5122586;28;20049;-65
2022/11/12 11:54:58;;;;;;;8.20;3.47;;;;;;;11.29;63.39;102969.72;5122860;28;20047;-65
2022/11/12 11:57:33;;;;;;;7.20;3.40;;;;;;;11.31;63.38;102965.84;5142246;27;20047;-64
2022/11/12 12:00:11;;;;;;;6.30;3.67;;;;;;;11.38;63.41;102969.53;5124946;27;20145;-64
2022/11/12 12:03:04;;;;;;;6.35;3.75;;;;;;;11.43;63.40;102969.00;5142958;27;20050;-64
2022/11/12 12:05:41;;;;;;;6.53;3.35;;;;;;;11.46;63.56;102959.72;5142241;27;20146;-64
2022/11/12 12:08:12;;;;;;;7.25;3.17;;;;;;;11.50;63.48;102963.75;5134708;27;20414;-64
2022/11/12 12:10:50;;;;;;;8.30;3.92;;;;;;;11.52;63.51;102953.63;5122448;28;20335;-65